sensor_id;sensor_type;location;lat;lon;timestamp;P1;durP1;ratioP1;P2;durP2;ratioP2
66987;SDS011;53908;51.464;-2.588;2022-10-26T00:02:07;11.43;;;1.98;;
66987;SDS011;53908;51.464;-2.588;2022-10-26T00:04:32;4.82;;;2.10;;
66987;SDS011;53908;51.464;-2.588;2022-10-26T00:06:58;6.57;;;1.77;;
66987;SDS011;53908;51.464;-2.588;2022-10-26T00:09:23;7.93;;;2.03;;
66987;SDS011;53908;51.464;-2.588;2022-10-26T00:11:49;5.80;;;1.85;;
66987;SDS011;53908;51.464;-2.588;2022-10-26T00:14:14;5.78;;;2.13;;
66987;SDS011;53908;51.464;-2.588;2022-10-26T00:16:40;5.68;;;1.77;;
66987;SDS011;53908;51.464;-2.588;2022-10-26T00:19:05;6.32;;;1.55;;
66987;SDS011;53908;51.464;-2.588;2022-10-26T00:21:30;6.80;;;2.08;;
66987;SDS011;53908;51.464;-2.588;2022-10-26T00:23:57;4.22;;;1.60;;
66987;SDS011;53908;51.464;-2.588;2022-10-26T00:26:23;5.03;;;1.73;;
66987;SDS011;53908;51.464;-2.588;2022-10-26T00:28:51;5.07;;;1.73;;
66987;SDS011;53908;51.464;-2.588;2022-10-26T00:31:17;5.13;;;1.67;;
66987;SDS011;53908;51.464;-2.588;2022-10-26T00:33:43;5.38;;;2.10;;
66987;SDS011;53908;51.464;-2.588;2022-10-26T00:36:08;4.68;;;1.98;;
66987;SDS011;53908;51.464;-2.588;2022-10-26T00:38:34;6.03;;;1.67;;
66987;SDS011;53908;51.464;-2.588;2022-10-26T00:41:00;4.43;;;1.50;;
66987;SDS011;53908;51.464;-2.588;2022-10-26T00:45:54;4.63;;;1.58;;
66987;SDS011;53908;51.464;-2.588;2022-10-26T00:48:25;4.13;;;1.60;;
66987;SDS011;53908;51.464;-2.588;2022-10-26T00:50:53;4.72;;;1.35;;
66987;SDS011;53908;51.464;-2.588;2022-10-26T00:53:19;8.15;;;1.70;;
66987;SDS011;53908;51.464;-2.588;2022-10-26T00:55:46;4.57;;;1.65;;
66987;SDS011;53908;51.464;-2.588;2022-10-26T00:58:13;6.72;;;1.80;;
66987;SDS011;53908;51.464;-2.588;2022-10-26T01:00:39;7.30;;;2.67;;
66987;SDS011;53908;51.464;-2.588;2022-10-26T01:03:05;5.28;;;1.75;;
66987;SDS011;53908;51.464;-2.588;2022-10-26T01:05:32;7.88;;;2.22;;
66987;SDS011;53908;51.464;-2.588;2022-10-26T01:07:59;9.27;;;2.30;;
66987;SDS011;53908;51.464;-2.588;2022-10-26T01:10:26;8.27;;;2.20;;
66987;SDS011;53908;51.464;-2.588;2022-10-26T01:12:52;10.50;;;2.55;;
66987;SDS011;53908;51.464;-2.588;2022-10-26T01:15:20;9.10;;;2.78;;
66987;SDS011;53908;51.464;-2.588;2022-10-26T01:17:54;4.20;;;1.77;;
66987;SDS011;53908;51.464;-2.588;2022-10-26T01:29:00;12.45;;;2.60;;
66987;SDS011;53908;51.464;-2.588;2022-10-26T01:32:03;8.02;;;2.60;;
66987;SDS011;53908;51.464;-2.588;2022-10-26T01:34:39;7.60;;;2.95;;
66987;SDS011;53908;51.464;-2.588;2022-10-26T01:37:19;9.15;;;3.35;;
66987;SDS011;53908;51.464;-2.588;2022-10-26T01:39:48;10.15;;;3.20;;
66987;SDS011;53908;51.464;-2.588;2022-10-26T01:42:20;12.93;;;2.80;;
66987;SDS011;53908;51.464;-2.588;2022-10-26T01:44:48;10.50;;;2.53;;
66987;SDS011;53908;51.464;-2.588;2022-10-26T01:47:17;4.53;;;2.10;;
66987;SDS011;53908;51.464;-2.588;2022-10-26T01:49:45;8.43;;;2.42;;
66987;SDS011;53908;51.464;-2.588;2022-10-26T01:52:13;11.85;;;2.35;;
66987;SDS011;53908;51.464;-2.588;2022-10-26T01:54:38;5.03;;;2.17;;
66987;SDS011;53908;51.464;-2.588;2022-10-26T01:57:08;4.20;;;1.95;;
66987;SDS011;53908;51.464;-2.588;2022-10-26T01:59:59;9.52;;;2.25;;
66987;SDS011;53908;51.464;-2.588;2022-10-26T02:13:50;9.50;;;1.85;;
66987;SDS011;53908;51.464;-2.588;2022-10-26T02:19:37;10.02;;;1.95;;
66987;SDS011;53908;51.464;-2.588;2022-10-26T02:24:39;11.65;;;2.33;;
66987;SDS011;53908;51.464;-2.588;2022-10-26T02:27:05;9.32;;;1.70;;
66987;SDS011;53908;51.464;-2.588;2022-10-26T02:29:32;7.93;;;1.90;;
66987;SDS011;53908;51.464;-2.588;2022-10-26T02:31:59;11.43;;;2.10;;
66987;SDS011;53908;51.464;-2.588;2022-10-26T02:34:25;7.22;;;1.77;;
66987;SDS011;53908;51.464;-2.588;2022-10-26T02:36:52;10.00;;;1.92;;
66987;SDS011;53908;51.464;-2.588;2022-10-26T02:39:20;9.82;;;1.88;;
66987;SDS011;53908;51.464;-2.588;2022-10-26T02:41:46;12.52;;;2.10;;
66987;SDS011;53908;51.464;-2.588;2022-10-26T02:44:18;10.50;;;1.55;;
66987;SDS011;53908;51.464;-2.588;2022-10-26T02:46:47;14.93;;;1.98;;
66987;SDS011;53908;51.464;-2.588;2022-10-26T02:49:13;7.25;;;1.60;;
66987;SDS011;53908;51.464;-2.588;2022-10-26T02:54:26;12.20;;;1.77;;
66987;SDS011;53908;51.464;-2.588;2022-10-26T02:56:59;14.40;;;3.00;;
66987;SDS011;53908;51.464;-2.588;2022-10-26T02:59:27;9.50;;;2.05;;
66987;SDS011;53908;51.464;-2.588;2022-10-26T03:01:54;11.07;;;2.00;;
66987;SDS011;53908;51.464;-2.588;2022-10-26T03:04:26;7.78;;;1.35;;
66987;SDS011;53908;51.464;-2.588;2022-10-26T03:06:53;17.42;;;2.08;;
66987;SDS011;53908;51.464;-2.588;2022-10-26T03:09:18;10.55;;;1.40;;
66987;SDS011;53908;51.464;-2.588;2022-10-26T03:11:44;13.93;;;1.95;;
66987;SDS011;53908;51.464;-2.588;2022-10-26T03:14:09;9.32;;;1.70;;
66987;SDS011;53908;51.464;-2.588;2022-10-26T03:16:35;10.75;;;1.83;;
66987;SDS011;53908;51.464;-2.588;2022-10-26T03:19:00;13.18;;;1.90;;
66987;SDS011;53908;51.464;-2.588;2022-10-26T03:21:25;14.40;;;2.00;;
66987;SDS011;53908;51.464;-2.588;2022-10-26T03:23:52;10.27;;;1.95;;
66987;SDS011;53908;51.464;-2.588;2022-10-26T03:26:18;8.95;;;1.70;;
66987;SDS011;53908;51.464;-2.588;2022-10-26T03:28:43;12.25;;;1.80;;
66987;SDS011;53908;51.464;-2.588;2022-10-26T03:31:08;11.02;;;1.88;;
66987;SDS011;53908;51.464;-2.588;2022-10-26T03:33:34;10.80;;;2.00;;
66987;SDS011;53908;51.464;-2.588;2022-10-26T03:35:59;11.38;;;1.92;;
66987;SDS011;53908;51.464;-2.588;2022-10-26T03:38:25;14.57;;;2.03;;
66987;SDS011;53908;51.464;-2.588;2022-10-26T03:40:50;16.55;;;2.05;;
66987;SDS011;53908;51.464;-2.588;2022-10-26T03:43:16;13.05;;;1.75;;
66987;SDS011;53908;51.464;-2.588;2022-10-26T03:45:41;11.50;;;2.00;;
66987;SDS011;53908;51.464;-2.588;2022-10-26T03:48:06;13.43;;;1.85;;
66987;SDS011;53908;51.464;-2.588;2022-10-26T03:50:32;12.18;;;1.90;;
66987;SDS011;53908;51.464;-2.588;2022-10-26T03:52:57;12.88;;;2.00;;
66987;SDS011;53908;51.464;-2.588;2022-10-26T03:55:23;16.50;;;2.28;;
66987;SDS011;53908;51.464;-2.588;2022-10-26T03:57:48;15.73;;;2.03;;
66987;SDS011;53908;51.464;-2.588;2022-10-26T04:00:14;12.45;;;1.77;;
66987;SDS011;53908;51.464;-2.588;2022-10-26T04:02:41;11.55;;;1.80;;
66987;SDS011;53908;51.464;-2.588;2022-10-26T04:05:07;9.82;;;1.92;;
66987;SDS011;53908;51.464;-2.588;2022-10-26T04:07:33;12.75;;;1.67;;
66987;SDS011;53908;51.464;-2.588;2022-10-26T04:09:59;7.30;;;1.70;;
66987;SDS011;53908;51.464;-2.588;2022-10-26T04:12:24;16.92;;;2.67;;
66987;SDS011;53908;51.464;-2.588;2022-10-26T04:14:49;7.82;;;1.67;;
66987;SDS011;53908;51.464;-2.588;2022-10-26T04:17:15;12.48;;;1.70;;
66987;SDS011;53908;51.464;-2.588;2022-10-26T04:19:40;21.23;;;2.70;;
66987;SDS011;53908;51.464;-2.588;2022-10-26T04:22:06;18.25;;;2.75;;
66987;SDS011;53908;51.464;-2.588;2022-10-26T04:24:31;18.65;;;2.25;;
66987;SDS011;53908;51.464;-2.588;2022-10-26T04:26:56;15.10;;;2.22;;
66987;SDS011;53908;51.464;-2.588;2022-10-26T04:29:22;18.92;;;2.88;;
66987;SDS011;53908;51.464;-2.588;2022-10-26T04:31:47;17.75;;;2.55;;
66987;SDS011;53908;51.464;-2.588;2022-10-26T04:34:13;11.98;;;2.22;;
66987;SDS011;53908;51.464;-2.588;2022-10-26T04:36:38;14.30;;;2.30;;
66987;SDS011;53908;51.464;-2.588;2022-10-26T04:39:03;14.55;;;1.98;;
66987;SDS011;53908;51.464;-2.588;2022-10-26T04:41:29;16.63;;;2.20;;
66987;SDS011;53908;51.464;-2.588;2022-10-26T04:43:54;20.65;;;2.50;;
66987;SDS011;53908;51.464;-2.588;2022-10-26T04:46:20;11.48;;;1.90;;
66987;SDS011;53908;51.464;-2.588;2022-10-26T04:48:46;19.35;;;2.47;;
66987;SDS011;53908;51.464;-2.588;2022-10-26T04:51:12;16.92;;;2.83;;
66987;SDS011;53908;51.464;-2.588;2022-10-26T04:53:37;16.65;;;2.85;;
66987;SDS011;53908;51.464;-2.588;2022-10-26T04:56:03;14.75;;;2.15;;
66987;SDS011;53908;51.464;-2.588;2022-10-26T04:58:29;14.73;;;2.25;;
66987;SDS011;53908;51.464;-2.588;2022-10-26T05:00:54;12.05;;;2.05;;
66987;SDS011;53908;51.464;-2.588;2022-10-26T05:03:20;11.50;;;1.75;;
66987;SDS011;53908;51.464;-2.588;2022-10-26T05:05:45;18.08;;;1.90;;
66987;SDS011;53908;51.464;-2.588;2022-10-26T05:08:14;13.75;;;2.05;;
66987;SDS011;53908;51.464;-2.588;2022-10-26T05:10:40;19.05;;;3.03;;
66987;SDS011;53908;51.464;-2.588;2022-10-26T05:13:05;14.48;;;2.28;;
66987;SDS011;53908;51.464;-2.588;2022-10-26T05:15:31;17.95;;;2.70;;
66987;SDS011;53908;51.464;-2.588;2022-10-26T05:17:57;13.88;;;2.25;;
66987;SDS011;53908;51.464;-2.588;2022-10-26T05:20:27;16.80;;;2.20;;
66987;SDS011;53908;51.464;-2.588;2022-10-26T05:22:58;17.17;;;2.53;;
66987;SDS011;53908;51.464;-2.588;2022-10-26T05:25:26;14.10;;;2.03;;
66987;SDS011;53908;51.464;-2.588;2022-10-26T05:27:57;15.02;;;2.17;;
66987;SDS011;53908;51.464;-2.588;2022-10-26T05:30:23;16.58;;;2.55;;
66987;SDS011;53908;51.464;-2.588;2022-10-26T05:32:55;21.88;;;2.60;;
66987;SDS011;53908;51.464;-2.588;2022-10-26T05:37:46;14.77;;;2.22;;
66987;SDS011;53908;51.464;-2.588;2022-10-26T05:40:12;15.07;;;1.98;;
66987;SDS011;53908;51.464;-2.588;2022-10-26T05:42:37;16.15;;;2.40;;
66987;SDS011;53908;51.464;-2.588;2022-10-26T05:45:03;13.30;;;2.08;;
66987;SDS011;53908;51.464;-2.588;2022-10-26T05:47:28;17.30;;;2.03;;
66987;SDS011;53908;51.464;-2.588;2022-10-26T05:49:54;13.25;;;2.40;;
66987;SDS011;53908;51.464;-2.588;2022-10-26T05:52:19;9.88;;;1.95;;
66987;SDS011;53908;51.464;-2.588;2022-10-26T05:54:44;14.98;;;2.13;;
66987;SDS011;53908;51.464;-2.588;2022-10-26T05:57:10;10.90;;;1.90;;
66987;SDS011;53908;51.464;-2.588;2022-10-26T05:59:36;18.10;;;2.53;;
66987;SDS011;53908;51.464;-2.588;2022-10-26T06:04:51;16.85;;;1.88;;
66987;SDS011;53908;51.464;-2.588;2022-10-26T06:07:18;19.05;;;2.45;;
66987;SDS011;53908;51.464;-2.588;2022-10-26T06:09:45;14.52;;;2.50;;
66987;SDS011;53908;51.464;-2.588;2022-10-26T06:12:11;20.20;;;2.45;;
66987;SDS011;53908;51.464;-2.588;2022-10-26T06:14:37;19.75;;;2.53;;
66987;SDS011;53908;51.464;-2.588;2022-10-26T06:27:46;24.25;;;3.33;;
66987;SDS011;53908;51.464;-2.588;2022-10-26T06:30:26;25.25;;;2.40;;
66987;SDS011;53908;51.464;-2.588;2022-10-26T06:32:52;22.90;;;2.90;;
